Hauptseite
METAR-TAF:

METAR-TAF

Flughäfen :

Flughafen Libreville Leon M'ba

Libreville, Gabun

Breite: 00-27N, Länge: 009-25E, Höhe: 12 m

Beobachtung

Neuester Wetterbericht von vor 22 Minuten, um 08:30 UTC
Wind 7 kt aus Süd
Temperatur 25°C
Luftfeuchtigkeit 83%
Luftdruck 1017 hPa
Sichtweite 10 km oder mehr
Leicht bewölkt in der Höhe von 1100 ft

METAR: FOOL 170830Z 17007KT 9999 FEW011 25/22 Q1017 NOSIG

Zeit: 09:52 (08:52 UTC)

Prognose

Neuester Wetterbericht von vor 3 Stunden und 52 Minuten, um 05:00 UTC
Gültige Prognose vom 17 um 06 UTC bis 18 um 12 UTC
Wind 10 kt aus Süd/Südost
Sichtweite 10 km oder mehr
Aufgelockert bewölkt in der Höhe von 1200 ft
Durchbrochene Bewölkung in der Höhe von 3000 ft
Wahrscheinlichkeit 30%
vom 18 um 04 UTC bis 18 um 06 UTC
Sichtweite: 4500 m
Durchbrochene Bewölkung in der Höhe von 800 ft
Sprühregen

TAF: FOOL 170500Z 1706/1812 16010KT 9999 SCT012 BKN030 PROB30 1804/1806 4500 DZ BKN008

Wetterbeobachtungen und Prognosen von mehr als 4000 Flughäfen (METAR und TAF Bericht).

Die verfügbaren Stationen werden durch gelbe und rote Markierungen auf der Karte dargestellt.

Führen Sie die Maus auf sie, um den Namen der Station zu sehen.

Darauf klicken, um die Beobachtung von Wetterbeobachtungen und Prognosen zu sehen.

Um die Karte zu ändern : klicken Sie auf den grünen Tasten mit einem schwarzen Kreuz Zum Vergrößern, auf den grünen Button mit einem Gedankenstrich zu verkleinern, oder auf die grünen Pfeile für benachbarte Karten.


METAR-TAF: